Time;durP1;ratioP1;P1;durP2;ratioP2;P2;SDS_P1;SDS_P2;PMS_P1;PMS_P2;Temp;Humidity;BMP_temperature;BMP_pressure;BME280_temperature;BME280_humidity;BME280_pressure;Samples;Min_cycle;Max_cycle;Signal;HPM_P1;HPM_P2
2022/10/30 00:02:48;;;;;;;20.95;9.75;;;;;;;11.95;100.00;101478.56;10396272;28;20047;-80
2022/10/30 00:07:49;;;;;;;29.58;12.35;;;;;;;11.89;100.00;101487.91;10357251;28;20042;-79
2022/10/30 00:12:50;;;;;;;19.42;11.05;;;;;;;11.78;100.00;101482.91;10380252;28;20050;-79
2022/10/30 00:17:50;;;;;;;21.73;9.32;;;;;;;11.75;100.00;101486.28;10357048;28;20049;-79
2022/10/30 00:22:51;;;;;;;26.38;9.95;;;;;;;11.70;100.00;101479.91;10359044;28;20056;-79
2022/10/30 00:27:51;;;;;;;25.20;10.68;;;;;;;11.67;100.00;101484.97;10402354;28;22631;-79
2022/10/30 00:32:52;;;;;;;34.03;10.45;;;;;;;11.53;100.00;101487.78;10387802;28;20136;-79
2022/10/30 00:37:52;;;;;;;20.63;10.13;;;;;;;11.33;100.00;101485.78;10397502;28;20044;-79
2022/10/30 00:42:53;;;;;;;29.20;9.68;;;;;;;11.29;100.00;101483.00;10363698;28;20525;-78
2022/10/30 00:48:02;;;;;;;34.67;12.07;;;;;;;11.22;100.00;101477.31;10366848;28;20049;-78
2022/10/30 00:53:06;;;;;;;22.70;10.77;;;;;;;11.14;100.00;101471.69;10364519;28;20049;-78
2022/10/30 00:58:08;;;;;;;25.17;10.70;;;;;;;11.11;100.00;101456.69;10364144;28;20034;-78
2022/10/30 01:03:09;;;;;;;28.00;10.40;;;;;;;10.94;100.00;101473.19;10365848;28;20040;-79
2022/10/30 01:08:09;;;;;;;22.80;12.15;;;;;;;10.85;100.00;101469.22;10396239;28;20402;-78
2022/10/30 01:13:09;;;;;;;21.92;12.65;;;;;;;10.78;100.00;101472.31;10382280;28;20126;-79
2022/10/30 01:18:26;;;;;;;27.80;10.85;;;;;;;10.77;100.00;101461.78;10388116;28;20091;-78
2022/10/30 01:23:58;;;;;;;23.63;10.85;;;;;;;10.70;100.00;101465.75;10369904;28;20043;-78
2022/10/30 01:29:18;;;;;;;22.05;11.02;;;;;;;10.67;100.00;101460.34;10375590;28;20052;-79
2022/10/30 01:34:20;;;;;;;27.00;12.88;;;;;;;10.58;100.00;101463.34;10363061;28;20045;-78
2022/10/30 01:39:25;;;;;;;21.65;9.32;;;;;;;10.50;100.00;101464.63;10341898;28;20050;-78
2022/10/30 01:44:28;;;;;;;19.30;10.07;;;;;;;10.47;100.00;101467.06;10363910;28;20042;-78
2022/10/30 01:50:06;;;;;;;18.25;10.30;;;;;;;10.42;100.00;101480.78;10361388;28;20033;-78
2022/10/30 01:55:28;;;;;;;41.38;11.98;;;;;;;10.38;100.00;101483.09;10363674;28;20037;-78
2022/10/30 02:00:29;;;;;;;23.10;11.70;;;;;;;10.34;100.00;101487.25;10344880;28;20457;-78
2022/10/30 02:05:34;;;;;;;33.95;12.93;;;;;;;10.31;100.00;101473.06;10364553;28;20096;-79
2022/10/30 02:10:35;;;;;;;28.80;11.23;;;;;;;10.33;100.00;101474.06;10360011;28;20049;-78
2022/10/30 02:15:36;;;;;;;18.02;11.82;;;;;;;10.29;100.00;101468.66;10361400;28;20119;-78
2022/10/30 02:20:36;;;;;;;17.13;9.23;;;;;;;10.25;100.00;101466.69;10344840;28;20057;-78
2022/10/30 02:25:37;;;;;;;26.25;12.55;;;;;;;10.24;100.00;101477.94;10345290;28;20033;-78
2022/10/30 02:30:37;;;;;;;20.33;11.85;;;;;;;10.28;100.00;101474.69;10361914;28;20052;-78
2022/10/30 02:35:38;;;;;;;24.15;11.68;;;;;;;10.28;100.00;101466.84;10338889;28;20122;-79
2022/10/30 02:40:38;;;;;;;19.83;10.30;;;;;;;10.18;100.00;101490.66;10361985;28;20463;-79
2022/10/30 02:45:39;;;;;;;21.13;12.23;;;;;;;10.02;100.00;101488.88;10361518;28;20045;-78
2022/10/30 02:50:39;;;;;;;25.83;12.93;;;;;;;9.97;100.00;101492.91;10358579;28;20044;-79
2022/10/30 02:55:40;;;;;;;24.95;11.48;;;;;;;9.99;100.00;101497.41;10362336;28;20133;-79
2022/10/30 03:00:40;;;;;;;23.23;11.70;;;;;;;10.04;100.00;101495.09;10358087;28;20115;-78
2022/10/30 03:05:41;;;;;;;19.67;11.75;;;;;;;10.04;100.00;101491.56;10359543;28;20711;-79
2022/10/30 03:10:41;;;;;;;28.52;12.27;;;;;;;10.12;100.00;101485.06;10360590;28;20037;-79
2022/10/30 03:15:42;;;;;;;22.33;9.93;;;;;;;10.11;100.00;101491.13;10359868;28;20075;-79
2022/10/30 03:20:42;;;;;;;29.77;10.93;;;;;;;10.04;100.00;101502.03;10357228;28;20148;-78
2022/10/30 03:25:43;;;;;;;23.88;11.90;;;;;;;9.88;100.00;101511.56;10358217;28;20030;-79
2022/10/30 03:30:43;;;;;;;19.38;10.35;;;;;;;9.52;100.00;101500.66;10360405;28;20062;-78
2022/10/30 03:35:44;;;;;;;17.10;11.30;;;;;;;9.31;100.00;101495.00;10358003;28;20391;-78
2022/10/30 03:40:44;;;;;;;25.13;10.50;;;;;;;9.32;100.00;101500.31;10355848;28;20062;-78
2022/10/30 03:45:46;;;;;;;26.13;11.20;;;;;;;9.46;100.00;101505.50;10342058;28;20052;-78
2022/10/30 03:50:47;;;;;;;25.45;12.10;;;;;;;9.62;100.00;101487.34;10357133;28;20037;-78
2022/10/30 03:55:47;;;;;;;34.80;12.55;;;;;;;9.69;100.00;101502.59;10357785;28;20030;-78
2022/10/30 04:00:48;;;;;;;26.50;13.05;;;;;;;9.70;100.00;101499.16;10356479;28;20125;-78
2022/10/30 04:05:51;;;;;;;25.10;13.73;;;;;;;9.68;100.00;101490.31;10357610;28;20059;-78
2022/10/30 04:10:52;;;;;;;24.20;12.68;;;;;;;9.65;100.00;101484.03;10341858;28;20034;-78
2022/10/30 04:15:52;;;;;;;30.63;12.95;;;;;;;9.71;100.00;101476.56;10399327;28;20116;-78
2022/10/30 04:20:53;;;;;;;24.60;13.05;;;;;;;9.70;100.00;101487.81;10397860;28;20040;-78
2022/10/30 04:25:53;;;;;;;33.60;16.45;;;;;;;9.67;100.00;101485.91;10372543;28;20030;-79
2022/10/30 04:30:55;;;;;;;24.48;14.25;;;;;;;9.64;100.00;101490.94;10390604;28;20042;-82
2022/10/30 04:35:56;;;;;;;26.67;13.57;;;;;;;9.65;100.00;101484.91;10379558;28;20418;-80
2022/10/30 04:40:56;;;;;;;19.85;11.00;;;;;;;9.52;100.00;101493.72;10393358;28;20132;-80
2022/10/30 04:45:57;;;;;;;18.48;10.35;;;;;;;9.09;100.00;101488.41;10397773;28;20400;-79
2022/10/30 04:50:58;;;;;;;17.45;10.57;;;;;;;9.00;100.00;101480.00;10364795;28;20085;-78
2022/10/30 04:55:58;;;;;;;22.02;12.05;;;;;;;9.02;100.00;101486.22;10373182;28;20037;-79
2022/10/30 05:01:03;;;;;;;21.20;13.07;;;;;;;9.12;100.00;101478.16;10384494;28;20038;-78
2022/10/30 05:06:05;;;;;;;22.92;13.32;;;;;;;9.37;100.00;101480.59;10376490;28;20033;-78
2022/10/30 05:11:05;;;;;;;27.90;14.27;;;;;;;9.49;100.00;101482.16;10370505;28;20049;-79
2022/10/30 05:16:06;;;;;;;30.58;13.98;;;;;;;9.51;100.00;101473.63;10393779;28;20565;-78
2022/10/30 05:21:08;;;;;;;20.35;11.85;;;;;;;9.59;100.00;101475.81;10362443;28;20057;-79
2022/10/30 05:26:08;;;;;;;30.05;15.13;;;;;;;9.53;100.00;101478.94;10345726;28;20050;-78
2022/10/30 05:31:09;;;;;;;22.20;11.68;;;;;;;9.57;100.00;101470.47;10363056;28;20048;-78
2022/10/30 05:36:09;;;;;;;26.48;13.38;;;;;;;9.54;100.00;101465.06;10362846;28;20037;-79
2022/10/30 05:41:10;;;;;;;24.15;11.73;;;;;;;9.43;100.00;101467.03;10346219;28;20131;-80
2022/10/30 05:46:10;;;;;;;18.83;8.88;;;;;;;9.06;100.00;101476.06;10359955;28;20069;-80
2022/10/30 05:51:11;;;;;;;24.50;12.00;;;;;;;8.80;100.00;101467.47;10373234;28;20037;-79
2022/10/30 05:56:12;;;;;;;24.33;14.73;;;;;;;8.73;100.00;101473.09;10362043;28;20034;-79
2022/10/30 06:01:12;;;;;;;21.80;10.80;;;;;;;8.52;100.00;101480.44;10363999;28;20131;-80
2022/10/30 06:06:13;;;;;;;29.00;12.48;;;;;;;8.47;100.00;101485.28;10360168;28;20056;-77
2022/10/30 06:11:13;;;;;;;32.17;14.88;;;;;;;8.38;100.00;101480.38;10361865;28;20095;-79
2022/10/30 06:16:14;;;;;;;20.73;11.95;;;;;;;8.30;100.00;101485.88;10343859;28;20050;-79
2022/10/30 06:21:14;;;;;;;26.73;11.80;;;;;;;8.28;100.00;101477.03;10359802;28;20046;-78
2022/10/30 06:26:15;;;;;;;20.58;12.52;;;;;;;8.43;100.00;101488.50;10361834;28;20095;-80
2022/10/30 06:31:21;;;;;;;30.48;14.07;;;;;;;8.56;100.00;101478.91;10354796;28;20049;-80
2022/10/30 06:36:22;;;;;;;24.65;13.73;;;;;;;8.70;100.00;101465.06;10338210;28;20383;-78
2022/10/30 06:41:22;;;;;;;25.70;14.32;;;;;;;8.86;100.00;101476.50;10358602;28;20030;-80
2022/10/30 06:46:23;;;;;;;29.85;14.73;;;;;;;8.82;100.00;101465.84;10344829;28;20519;-79
2022/10/30 06:51:23;;;;;;;23.77;14.80;;;;;;;8.84;100.00;101465.03;10361405;28;20042;-78
2022/10/30 06:56:24;;;;;;;25.77;15.55;;;;;;;8.89;100.00;101461.03;10359766;28;20050;-80
2022/10/30 07:01:24;;;;;;;23.98;14.50;;;;;;;8.97;100.00;101459.81;10362139;28;20508;-79
2022/10/30 07:06:25;;;;;;;31.98;14.95;;;;;;;9.12;100.00;101454.66;10359311;28;20066;-80
2022/10/30 07:11:25;;;;;;;25.40;12.80;;;;;;;9.24;100.00;101458.03;10359020;28;20037;-79
2022/10/30 07:16:26;;;;;;;26.50;13.52;;;;;;;9.29;100.00;101455.69;10359445;28;20053;-79
2022/10/30 07:21:27;;;;;;;25.45;12.25;;;;;;;9.35;100.00;101457.81;10358126;28;20084;-79
2022/10/30 07:26:27;;;;;;;22.35;11.45;;;;;;;9.41;100.00;101463.41;10359866;28;20124;-79
2022/10/30 07:31:28;;;;;;;21.35;12.68;;;;;;;9.42;100.00;101457.38;10358241;28;20030;-79
2022/10/30 07:36:28;;;;;;;22.13;10.82;;;;;;;9.60;100.00;101459.31;10360699;28;20070;-79
2022/10/30 07:41:29;;;;;;;28.77;12.63;;;;;;;9.76;100.00;101449.00;10360221;28;20056;-79
2022/10/30 07:46:29;;;;;;;25.63;11.50;;;;;;;9.90;100.00;101455.03;10358241;28;20072;-80
2022/10/30 07:51:30;;;;;;;30.48;11.20;;;;;;;10.02;100.00;101456.56;10368045;28;20536;-79
2022/10/30 07:56:30;;;;;;;20.65;10.63;;;;;;;10.25;100.00;101468.41;10352034;28;20135;-79
2022/10/30 08:01:31;;;;;;;20.27;13.20;;;;;;;10.58;100.00;101464.25;10358640;28;20048;-80
2022/10/30 08:06:31;;;;;;;20.25;10.65;;;;;;;10.86;100.00;101460.56;10354782;28;20034;-79
2022/10/30 08:11:33;;;;;;;23.20;9.85;;;;;;;11.10;100.00;101469.72;10356633;28;20164;-79
2022/10/30 08:16:34;;;;;;;18.17;8.85;;;;;;;11.38;100.00;101464.25;10358109;28;20088;-79
2022/10/30 08:21:34;;;;;;;18.65;9.18;;;;;;;11.69;100.00;101455.38;10341011;28;20049;-79
2022/10/30 08:26:35;;;;;;;16.40;8.88;;;;;;;12.14;100.00;101446.31;10359039;28;20088;-79
2022/10/30 08:31:35;;;;;;;19.50;9.15;;;;;;;12.60;100.00;101429.34;10360642;28;20555;-81
2022/10/30 08:36:36;;;;;;;14.88;8.52;;;;;;;13.11;100.00;101428.19;10357360;28;20117;-81
2022/10/30 08:41:36;;;;;;;16.25;6.28;;;;;;;13.66;100.00;101427.19;10357331;28;20044;-80
2022/10/30 08:46:37;;;;;;;23.88;6.93;;;;;;;14.11;100.00;101439.63;10356460;28;20053;-79
2022/10/30 08:51:38;;;;;;;14.57;8.45;;;;;;;14.46;100.00;101428.75;10345701;28;20042;-79
2022/10/30 08:56:38;;;;;;;19.67;8.60;;;;;;;14.77;95.14;101424.75;10363711;28;20540;-79
2022/10/30 09:01:39;;;;;;;16.73;7.03;;;;;;;15.06;96.12;101440.78;10365785;28;20119;-79
2022/10/30 09:06:39;;;;;;;18.40;7.93;;;;;;;15.27;95.86;101440.72;10365120;28;20046;-80
2022/10/30 09:11:40;;;;;;;19.52;6.55;;;;;;;15.54;92.67;101439.94;10365712;28;20117;-80
2022/10/30 09:16:40;;;;;;;16.38;8.27;;;;;;;15.73;92.57;101445.88;10365422;28;20048;-79
2022/10/30 09:21:41;;;;;;;22.02;8.32;;;;;;;15.89;92.07;101444.72;10362943;28;20104;-80
2022/10/30 09:26:41;;;;;;;18.23;6.68;;;;;;;16.14;94.48;101450.00;10346074;28;20046;-81
2022/10/30 09:31:42;;;;;;;14.77;7.55;;;;;;;16.56;85.70;101431.97;10346693;28;20042;-78
2022/10/30 09:36:45;;;;;;;15.38;8.57;;;;;;;17.31;85.31;101430.75;10360758;28;20133;-79
2022/10/30 09:42:03;;;;;;;16.30;6.50;;;;;;;18.65;73.43;101426.28;10357446;28;20455;-81
2022/10/30 09:47:41;;;;;;;18.35;6.75;;;;;;;20.41;68.41;101422.66;10363754;28;20052;-81
2022/10/30 09:53:04;;;;;;;11.30;5.82;;;;;;;22.55;56.41;101425.16;10360247;28;20554;-78
2022/10/30 09:58:27;;;;;;;11.05;5.20;;;;;;;24.30;55.74;101418.66;10360143;28;20069;-82
2022/10/30 10:03:47;;;;;;;14.65;6.22;;;;;;;25.20;50.13;101424.66;10356976;28;20167;-80
2022/10/30 10:09:01;;;;;;;11.55;6.10;;;;;;;25.76;50.17;101424.38;10357647;28;20521;-81
2022/10/30 10:14:08;;;;;;;11.63;5.53;;;;;;;27.01;41.11;101434.94;10357237;28;20038;-81
2022/10/30 10:19:18;;;;;;;9.80;5.75;;;;;;;26.68;40.41;101432.56;10372328;28;20053;-82
2022/10/30 10:24:29;;;;;;;8.63;5.75;;;;;;;24.97;43.95;101439.94;10358490;28;20117;-82
2022/10/30 10:29:38;;;;;;;17.67;6.30;;;;;;;26.07;42.32;101421.47;10355565;28;20502;-83
2022/10/30 10:35:15;;;;;;;23.58;7.13;;;;;;;27.00;41.69;101429.56;10356055;28;20053;-84
2022/10/30 10:40:31;;;;;;;15.20;6.18;;;;;;;26.95;39.38;101416.22;10347972;28;20050;-82
2022/10/30 10:45:57;;;;;;;13.32;5.55;;;;;;;28.16;38.54;101419.00;10356250;28;20120;-82
2022/10/30 10:51:01;;;;;;;12.27;5.70;;;;;;;27.54;39.03;101418.16;10333630;28;20592;-82
2022/10/30 10:56:02;;;;;;;21.20;5.90;;;;;;;26.94;39.91;101412.63;10387243;28;20079;-84
2022/10/30 11:01:02;;;;;;;13.30;6.67;;;;;;;26.57;40.84;101413.00;10355636;28;20037;-82
2022/10/30 11:06:20;;;;;;;15.37;6.40;;;;;;;26.60;40.64;101393.31;10341566;28;20049;-84
2022/10/30 11:11:20;;;;;;;9.48;5.38;;;;;;;26.93;42.47;101400.09;10339840;28;20489;-79
2022/10/30 11:16:34;;;;;;;14.18;5.43;;;;;;;27.06;40.55;101406.22;10358415;28;20054;-84
2022/10/30 11:21:37;;;;;;;11.07;7.10;;;;;;;27.74;40.10;101395.47;10339659;28;20046;-85
2022/10/30 11:26:38;;;;;;;18.42;7.35;;;;;;;28.08;38.07;101408.34;10337898;28;20887;-80
2022/10/30 11:31:42;;;;;;;12.97;5.47;;;;;;;28.09;39.44;101404.75;10353160;28;20044;-81
2022/10/30 11:36:50;;;;;;;13.50;5.35;;;;;;;27.22;41.23;101395.28;10354286;28;20037;-83
2022/10/30 11:42:04;;;;;;;10.25;5.15;;;;;;;28.13;39.14;101395.75;10338606;28;20560;-81
2022/10/30 11:47:05;;;;;;;15.65;4.85;;;;;;;28.36;39.71;101398.00;10346592;28;20446;-80
2022/10/30 11:52:11;;;;;;;15.68;6.72;;;;;;;28.77;37.80;101397.25;10340239;28;20121;-81
2022/10/30 11:57:34;;;;;;;11.00;5.10;;;;;;;27.96;41.87;101388.81;10369739;28;20120;-81
2022/10/30 12:02:42;;;;;;;10.82;5.25;;;;;;;27.67;40.12;101391.97;10386567;28;20060;-79
2022/10/30 12:07:43;;;;;;;11.50;5.18;;;;;;;27.15;41.33;101396.28;10368803;28;20495;-80
2022/10/30 12:12:43;;;;;;;19.67;6.10;;;;;;;26.52;46.31;101388.00;10358431;28;20125;-80
2022/10/30 12:17:51;;;;;;;9.97;4.70;;;;;;;26.24;44.64;101378.47;10352588;28;20444;-81
2022/10/30 12:22:55;;;;;;;16.17;5.78;;;;;;;26.78;41.55;101379.69;10341772;28;20045;-81
2022/10/30 12:28:28;;;;;;;15.23;4.88;;;;;;;26.61;42.67;101377.19;10358406;28;20041;-79
2022/10/30 12:33:39;;;;;;;11.23;5.28;;;;;;;26.32;42.17;101378.38;10363835;28;20456;-78
2022/10/30 12:38:48;;;;;;;11.63;5.35;;;;;;;25.61;44.78;101360.19;10381077;28;20120;-80
2022/10/30 12:43:54;;;;;;;13.45;4.80;;;;;;;23.37;53.94;101376.63;10347347;28;20379;-81
2022/10/30 12:49:14;;;;;;;15.43;4.95;;;;;;;22.00;59.69;101370.50;10361827;28;20049;-80
2022/10/30 12:54:33;;;;;;;12.88;5.60;;;;;;;21.37;61.09;101369.88;10361757;28;20056;-79
2022/10/30 12:59:52;;;;;;;14.70;4.53;;;;;;;21.22;62.68;101359.94;10363447;28;20050;-81
2022/10/30 13:04:57;;;;;;;16.30;5.45;;;;;;;21.10;62.88;101355.38;10361733;28;20030;-79
2022/10/30 13:10:15;;;;;;;18.73;5.88;;;;;;;21.19;61.00;101349.25;10348629;28;20129;-81
2022/10/30 13:15:19;;;;;;;13.32;5.60;;;;;;;22.16;58.03;101351.97;10364264;28;20042;-80
2022/10/30 13:20:20;;;;;;;9.98;5.32;;;;;;;22.99;55.23;101356.00;10364451;28;20053;-80
2022/10/30 13:25:30;;;;;;;16.97;4.67;;;;;;;22.56;54.64;101354.94;10362599;28;20116;-80
2022/10/30 13:30:34;;;;;;;28.13;9.65;;;;;;;21.94;55.87;101357.13;10362740;28;20153;-78
2022/10/30 13:35:36;;;;;;;15.32;6.68;;;;;;;22.39;54.22;101354.81;10346560;28;20375;-78
2022/10/30 13:40:54;;;;;;;17.13;7.20;;;;;;;23.85;50.53;101343.75;10362497;28;20398;-78
2022/10/30 13:46:10;;;;;;;22.45;7.28;;;;;;;24.24;53.83;101341.97;10321649;28;20045;-78
2022/10/30 13:51:10;;;;;;;10.43;4.80;;;;;;;24.15;52.29;101342.88;10347289;28;20042;-77
2022/10/30 13:56:13;;;;;;;13.87;5.03;;;;;;;24.53;49.72;101337.47;10363664;28;20454;-77
2022/10/30 14:01:29;;;;;;;10.27;4.63;;;;;;;24.61;53.11;101341.00;10348072;28;20042;-77
2022/10/30 14:06:45;;;;;;;17.63;5.20;;;;;;;24.22;50.57;101350.91;10361539;28;20042;-77
2022/10/30 14:11:46;;;;;;;12.50;5.10;;;;;;;22.83;54.22;101353.28;10359994;28;20108;-78
2022/10/30 14:17:17;;;;;;;15.95;6.10;;;;;;;21.31;60.59;101353.84;10346643;28;20045;-77
2022/10/30 14:22:22;;;;;;;11.65;6.70;;;;;;;20.53;65.39;101364.38;10361051;28;20045;-77
2022/10/30 14:27:53;;;;;;;8.18;5.00;;;;;;;19.75;69.45;101356.00;10360835;28;20494;-77
2022/10/30 14:32:57;;;;;;;19.63;6.45;;;;;;;19.28;71.45;101367.53;10360392;28;20060;-77
2022/10/30 14:38:23;;;;;;;15.25;6.03;;;;;;;19.09;75.25;101364.53;10361619;28;20547;-78
2022/10/30 14:43:47;;;;;;;10.07;5.13;;;;;;;19.56;74.67;101374.25;10329181;28;20038;-77
2022/10/30 14:49:22;;;;;;;26.67;6.25;;;;;;;19.76;74.33;101371.06;10348905;28;20398;-77
2022/10/30 14:54:41;;;;;;;17.73;6.10;;;;;;;19.55;75.35;101372.47;10339070;28;20053;-77
2022/10/30 14:59:46;;;;;;;16.13;6.35;;;;;;;19.24;77.74;101377.19;10342853;28;20048;-77
2022/10/30 15:05:08;;;;;;;18.48;6.15;;;;;;;18.79;80.43;101385.06;10356659;28;20041;-77
2022/10/30 15:10:31;;;;;;;18.33;5.47;;;;;;;18.28;80.45;101388.31;10353068;28;20045;-77
2022/10/30 15:15:39;;;;;;;9.93;4.78;;;;;;;17.76;83.39;101387.00;10355848;28;20107;-77
2022/10/30 15:20:39;;;;;;;13.48;6.30;;;;;;;17.37;85.15;101397.38;10351657;28;20160;-78
2022/10/30 15:25:47;;;;;;;10.73;6.00;;;;;;;16.99;86.33;101406.91;10352416;28;20448;-77
2022/10/30 15:31:22;;;;;;;15.38;6.07;;;;;;;16.65;88.38;101411.13;10372406;28;20048;-78
2022/10/30 15:36:29;;;;;;;17.05;5.70;;;;;;;16.27;90.11;101397.59;10263206;28;20054;-77
2022/10/30 15:41:29;;;;;;;14.30;6.10;;;;;;;15.81;93.83;101423.31;10339833;28;20046;-77
2022/10/30 15:46:30;;;;;;;15.13;6.38;;;;;;;15.48;96.82;101424.78;10346606;28;21952;-77
2022/10/30 15:51:33;;;;;;;12.48;7.15;;;;;;;15.22;98.32;101435.25;10330221;28;20138;-77
2022/10/30 15:56:40;;;;;;;18.42;7.45;;;;;;;15.10;100.00;101433.06;10335133;28;20037;-76
2022/10/30 16:01:44;;;;;;;11.80;6.15;;;;;;;14.85;100.00;101438.25;10357657;28;20068;-76
2022/10/30 16:06:56;;;;;;;18.27;7.03;;;;;;;14.63;100.00;101448.78;10344212;28;20042;-77
2022/10/30 16:11:58;;;;;;;14.47;7.23;;;;;;;14.38;100.00;101454.78;10343575;28;20034;-76
2022/10/30 16:16:58;;;;;;;;;;;;;;;14.26;100.00;101462.19;10356390;28;20407;-77
2022/10/30 16:21:59;;;;;;;14.85;7.10;;;;;;;14.19;100.00;101466.25;10347006;28;19970;-77
2022/10/30 16:27:12;;;;;;;20.55;7.93;;;;;;;14.19;100.00;101475.09;10351238;28;20123;-77
2022/10/30 16:32:20;;;;;;;16.17;7.55;;;;;;;14.13;100.00;101495.88;10355584;28;20041;-77
2022/10/30 16:37:36;;;;;;;13.75;8.50;;;;;;;14.02;100.00;101520.84;10337533;28;20129;-77
2022/10/30 16:42:37;;;;;;;19.00;8.20;;;;;;;13.95;100.00;101511.75;10356683;28;20367;-77
2022/10/30 16:47:43;;;;;;;16.02;8.18;;;;;;;14.03;100.00;101528.78;10338275;28;20739;-78
2022/10/30 16:52:48;;;;;;;15.75;8.68;;;;;;;14.12;100.00;101533.56;10355435;28;20117;-79
2022/10/30 16:58:05;;;;;;;22.42;8.45;;;;;;;14.12;100.00;101536.19;10341375;28;20043;-77
2022/10/30 17:03:13;;;;;;;15.93;7.55;;;;;;;14.14;100.00;101541.50;10348894;28;20062;-77
2022/10/30 17:08:17;;;;;;;16.92;8.85;;;;;;;14.19;100.00;101533.00;10357139;28;20049;-78
2022/10/30 17:13:44;;;;;;;35.53;9.00;;;;;;;14.22;100.00;101541.03;10373357;28;20053;-81
2022/10/30 17:18:51;;;;;;;18.63;7.65;;;;;;;14.18;100.00;101549.63;10340576;28;20486;-81
2022/10/30 17:23:58;;;;;;;20.40;8.90;;;;;;;14.06;100.00;101551.72;10364291;28;20103;-80
2022/10/30 17:29:11;;;;;;;22.23;6.95;;;;;;;14.02;100.00;101549.78;10381827;28;20079;-79
2022/10/30 17:34:29;;;;;;;19.23;9.48;;;;;;;13.89;100.00;101559.75;10355971;28;20063;-78
2022/10/30 17:39:31;;;;;;;19.30;9.25;;;;;;;13.86;100.00;101562.25;10362524;28;20040;-77
2022/10/30 17:44:40;;;;;;;20.77;9.38;;;;;;;13.91;100.00;101565.06;10363110;28;20085;-79
2022/10/30 17:49:49;;;;;;;19.27;7.97;;;;;;;13.86;100.00;101563.97;10343449;28;20037;-77
2022/10/30 17:54:57;;;;;;;;;;;;;;;13.72;100.00;101577.38;10362494;28;20038;-78
2022/10/30 17:59:59;;;;;;;19.52;8.05;;;;;;;13.64;100.00;101589.28;10363624;28;20337;-80
2022/10/30 18:05:00;;;;;;;16.23;7.38;;;;;;;13.59;100.00;101596.97;10364511;28;20048;-77
2022/10/30 18:10:05;;;;;;;24.55;10.73;;;;;;;13.54;100.00;101605.47;10361594;28;20309;-77
2022/10/30 18:15:27;;;;;;;17.13;7.75;;;;;;;13.41;100.00;101607.47;10350831;28;20041;-76
2022/10/30 18:20:28;;;;;;;14.45;8.00;;;;;;;13.34;100.00;101627.31;10357769;28;20042;-79
2022/10/30 18:25:36;;;;;;;;;;;;;;;13.22;100.00;101627.63;10375022;28;20030;-78
2022/10/30 18:30:50;;;;;;;17.10;9.67;;;;;;;13.17;100.00;101631.75;10361499;28;19917;-79
2022/10/30 18:35:53;;;;;;;22.95;10.30;;;;;;;13.14;100.00;101643.84;10342617;28;20045;-77
2022/10/30 18:40:58;;;;;;;15.18;7.65;;;;;;;13.09;100.00;101640.09;10356240;28;20045;-78
2022/10/30 18:45:59;;;;;;;14.63;9.20;;;;;;;13.00;100.00;101644.06;10356084;28;20042;-79
2022/10/30 18:51:05;;;;;;;18.80;8.25;;;;;;;12.91;100.00;101656.72;10357780;28;20041;-79
2022/10/30 18:56:10;;;;;;;25.15;9.70;;;;;;;12.77;100.00;101662.19;10341204;28;20701;-78
2022/10/30 19:01:25;;;;;;;17.65;8.70;;;;;;;12.63;100.00;101669.34;10341443;28;20486;-77
2022/10/30 19:06:33;;;;;;;17.42;9.52;;;;;;;12.48;100.00;101671.16;10358399;28;20414;-78
2022/10/30 19:11:34;;;;;;;19.67;9.23;;;;;;;12.45;100.00;101673.63;10359581;28;20070;-77
2022/10/30 19:16:38;;;;;;;18.30;9.55;;;;;;;12.28;100.00;101665.75;10357837;28;20394;-77
2022/10/30 19:21:50;;;;;;;24.48;10.77;;;;;;;12.13;100.00;101667.56;10360174;28;20033;-78
2022/10/30 19:26:51;;;;;;;21.92;12.05;;;;;;;12.12;100.00;101676.25;10358555;28;20041;-78
2022/10/30 19:32:02;;;;;;;17.27;11.48;;;;;;;11.98;100.00;101670.22;10355112;28;20151;-79
2022/10/30 19:37:05;;;;;;;23.23;10.27;;;;;;;11.88;100.00;101684.53;10359217;28;20529;-78
2022/10/30 19:42:06;;;;;;;22.27;10.93;;;;;;;11.71;100.00;101678.38;10356635;28;20034;-77
2022/10/30 19:47:10;;;;;;;19.90;10.50;;;;;;;11.83;100.00;101683.38;10355751;28;20092;-78
2022/10/30 19:52:18;;;;;;;31.33;12.10;;;;;;;11.87;100.00;101685.34;10356793;28;20034;-78
2022/10/30 19:57:21;;;;;;;23.50;13.45;;;;;;;11.81;100.00;101691.19;10324246;28;20048;-79
2022/10/30 20:02:24;;;;;;;26.75;14.45;;;;;;;11.88;100.00;101690.72;10361383;28;20054;-80
2022/10/30 20:07:25;;;;;;;26.55;13.10;;;;;;;11.79;100.00;101703.31;10390040;28;20042;-80
2022/10/30 20:12:25;;;;;;;32.97;15.48;;;;;;;11.75;100.00;101711.81;10360872;28;20042;-79
2022/10/30 20:17:26;;;;;;;30.38;14.15;;;;;;;11.66;100.00;101713.91;10360120;28;20048;-80
2022/10/30 20:22:26;;;;;;;36.38;13.75;;;;;;;11.51;100.00;101712.22;10356704;28;20057;-80
2022/10/30 20:27:28;;;;;;;22.08;13.18;;;;;;;11.44;100.00;101707.44;10325074;28;20192;-79
2022/10/30 20:32:28;;;;;;;29.77;15.55;;;;;;;11.38;100.00;101694.00;10356326;28;20053;-79
2022/10/30 20:37:29;;;;;;;27.38;13.48;;;;;;;11.38;100.00;101717.59;10340113;28;20529;-80
2022/10/30 20:42:30;;;;;;;26.95;14.85;;;;;;;11.36;100.00;101720.09;10356287;28;20049;-79
2022/10/30 20:47:31;;;;;;;23.92;12.48;;;;;;;11.29;100.00;101726.72;10365226;28;20467;-79
2022/10/30 20:52:31;;;;;;;29.92;14.35;;;;;;;11.38;100.00;101749.91;10363161;28;20034;-80
2022/10/30 20:57:32;;;;;;;34.42;17.63;;;;;;;11.38;100.00;101749.91;10362371;28;20038;-79
2022/10/30 21:02:33;;;;;;;34.78;16.63;;;;;;;11.47;100.00;101757.44;10365652;28;20066;-78
2022/10/30 21:07:33;;;;;;;31.67;14.70;;;;;;;11.49;100.00;101776.78;10362135;28;20050;-79
2022/10/30 21:12:34;;;;;;;27.05;13.90;;;;;;;11.53;100.00;101788.31;10364065;28;20061;-79
2022/10/30 21:17:35;;;;;;;34.30;17.08;;;;;;;11.58;100.00;101786.88;10362391;28;20037;-79
2022/10/30 21:22:35;;;;;;;32.05;15.23;;;;;;;11.54;100.00;101784.88;10361364;28;20481;-80
2022/10/30 21:27:41;;;;;;;23.88;16.38;;;;;;;11.61;100.00;101800.16;10363396;28;20108;-79
2022/10/30 21:32:43;;;;;;;39.85;15.07;;;;;;;11.57;100.00;101795.56;10362802;28;20045;-79
2022/10/30 21:37:44;;;;;;;38.88;16.63;;;;;;;11.52;100.00;101797.00;10360654;28;20129;-79
2022/10/30 21:42:47;;;;;;;36.53;16.10;;;;;;;11.49;100.00;101794.22;10363766;28;20387;-79
2022/10/30 21:47:51;;;;;;;35.83;17.23;;;;;;;11.48;100.00;101801.19;10362025;28;20048;-79
2022/10/30 21:52:51;;;;;;;35.70;16.67;;;;;;;11.43;100.00;101802.63;10346309;28;20066;-79
2022/10/30 21:57:52;;;;;;;27.33;14.80;;;;;;;11.43;100.00;101810.50;10360945;28;20046;-81
2022/10/30 22:02:55;;;;;;;25.55;16.30;;;;;;;11.34;100.00;101816.06;10361007;28;20231;-80
2022/10/30 22:07:55;;;;;;;27.45;17.20;;;;;;;11.37;100.00;101818.88;10361759;28;20030;-79
2022/10/30 22:12:56;;;;;;;29.30;16.67;;;;;;;11.39;100.00;101819.00;10362452;28;20052;-80
2022/10/30 22:17:59;;;;;;;35.75;16.77;;;;;;;11.44;100.00;101826.28;10344395;28;20026;-80
2022/10/30 22:22:59;;;;;;;31.30;18.17;;;;;;;11.42;100.00;101827.03;10364429;28;20451;-80
2022/10/30 22:28:00;;;;;;;29.13;15.05;;;;;;;11.51;100.00;101831.91;10362237;28;20033;-79
2022/10/30 22:33:00;;;;;;;37.58;17.92;;;;;;;11.56;100.00;101826.13;10361137;28;20064;-78
2022/10/30 22:38:01;;;;;;;35.08;17.48;;;;;;;11.58;100.00;101827.13;10360404;28;20141;-78
2022/10/30 22:43:01;;;;;;;28.83;16.35;;;;;;;11.65;100.00;101841.50;10360811;28;20037;-77
2022/10/30 22:48:02;;;;;;;24.75;14.68;;;;;;;11.68;100.00;101830.28;10361889;28;20034;-78
2022/10/30 22:53:02;;;;;;;26.15;15.57;;;;;;;11.68;100.00;101843.41;10359841;28;20431;-78